Skip Navigation Links
NOAA logo - Click to go to the NOAA homepage
NOAA's National Weather Service
Alaska Aviation Weather Unit
  NWS logo - Click to go to the NWS homepage
Left Navbar Graphic     03 AKDT = 11 GMT

   
NOAA is celebrating 200 years of science, service, and stewardship. Visit the NOAA 200th celebration Web site to learn more.
USA.gov is the U.S. Government's official Web portal to all Federal, state and local government Web resources and services.
Facebook
NWS on Facebook

AAWU Home :: Display TAF Add Bookmark
TAF PACD 290532Z 2906/3006 34011KT P6SM FEW020
     FM291200 02008KT P6SM SKC
     FM291800 09008KT P6SM FEW035 SCT250=

METAR PACD 290553Z AUTO 32003KT 10SM FEW019 M06/M08 A2978= METAR PACD 290653Z AUTO 30003KT 10SM CLR M07/M08 A2979= METAR PACD 290753Z AUTO 00000KT 10SM FEW019 M08/M09 A2980= PACD 290808Z AUTO 00000KT 10SM BKN019 M08/M09 A2980= PACD 290817Z AUTO 30003KT 10SM SCT019 M07/M08 A2980= METAR PACD 290853Z AUTO 00000KT 10SM FEW019 M07/M08 A2980= METAR PACD 290953Z AUTO 35004KT 10SM CLR M10/M11 A2980= METAR PACD 291053Z AUTO 00000KT 10SM CLR M09/M11 A2980=
 Alaska TAF Map

NOAA's National Weather Service
Alaska Aviation Weather Unit
6930 Sand Lake Road
Anchorage, AK 99502-1845
Disclaimer
Credits
Glossary
Privacy Policy
About Us
Career Opportunities
Contact AAWU Internet Services Site last modified: April, 17th 2012